sensor_id;sensor_type;location;lat;lon;timestamp;temperature;humidity
14057;DHT22;7103;54.300;10.180;2022-11-09T00:00:52;13.30;1.00
14057;DHT22;7103;54.300;10.180;2022-11-09T00:03:19;13.30;1.00
14057;DHT22;7103;54.300;10.180;2022-11-09T00:05:57;13.30;1.00
14057;DHT22;7103;54.300;10.180;2022-11-09T00:08:25;13.20;1.00
14057;DHT22;7103;54.300;10.180;2022-11-09T00:10:52;13.10;1.00
14057;DHT22;7103;54.300;10.180;2022-11-09T00:13:19;13.20;1.00
14057;DHT22;7103;54.300;10.180;2022-11-09T00:15:46;13.30;1.00
14057;DHT22;7103;54.300;10.180;2022-11-09T00:18:13;13.20;1.00
14057;DHT22;7103;54.300;10.180;2022-11-09T00:20:40;13.20;1.00
14057;DHT22;7103;54.300;10.180;2022-11-09T00:23:14;13.20;1.00
14057;DHT22;7103;54.300;10.180;2022-11-09T00:25:41;13.30;1.00
14057;DHT22;7103;54.300;10.180;2022-11-09T00:28:08;13.20;1.00
14057;DHT22;7103;54.300;10.180;2022-11-09T00:30:35;13.30;1.00
14057;DHT22;7103;54.300;10.180;2022-11-09T00:33:01;13.20;1.00
14057;DHT22;7103;54.300;10.180;2022-11-09T00:35:28;13.30;1.00
14057;DHT22;7103;54.300;10.180;2022-11-09T00:37:55;13.30;1.00
14057;DHT22;7103;54.300;10.180;2022-11-09T00:40:22;13.30;1.00
14057;DHT22;7103;54.300;10.180;2022-11-09T00:42:49;13.30;1.00
14057;DHT22;7103;54.300;10.180;2022-11-09T00:45:16;13.40;1.00
14057;DHT22;7103;54.300;10.180;2022-11-09T00:47:43;13.40;1.00
14057;DHT22;7103;54.300;10.180;2022-11-09T00:50:10;13.40;1.00
14057;DHT22;7103;54.300;10.180;2022-11-09T00:52:37;13.30;1.00
14057;DHT22;7103;54.300;10.180;2022-11-09T00:55:04;13.30;1.00
14057;DHT22;7103;54.300;10.180;2022-11-09T00:57:31;13.40;1.00
14057;DHT22;7103;54.300;10.180;2022-11-09T00:59:58;13.40;1.00
14057;DHT22;7103;54.300;10.180;2022-11-09T01:02:24;13.50;1.00
14057;DHT22;7103;54.300;10.180;2022-11-09T01:04:51;13.50;1.00
14057;DHT22;7103;54.300;10.180;2022-11-09T01:07:18;13.50;1.00
14057;DHT22;7103;54.300;10.180;2022-11-09T01:09:45;13.50;1.00
14057;DHT22;7103;54.300;10.180;2022-11-09T01:12:12;13.50;1.00
14057;DHT22;7103;54.300;10.180;2022-11-09T01:14:38;13.50;1.00
14057;DHT22;7103;54.300;10.180;2022-11-09T01:17:06;13.40;1.00
14057;DHT22;7103;54.300;10.180;2022-11-09T01:19:32;13.40;1.00
14057;DHT22;7103;54.300;10.180;2022-11-09T01:21:59;13.30;1.00
14057;DHT22;7103;54.300;10.180;2022-11-09T01:24:26;13.30;1.00
14057;DHT22;7103;54.300;10.180;2022-11-09T01:26:53;13.20;1.00
14057;DHT22;7103;54.300;10.180;2022-11-09T01:29:19;13.20;1.00
14057;DHT22;7103;54.300;10.180;2022-11-09T01:31:46;13.20;1.00
14057;DHT22;7103;54.300;10.180;2022-11-09T01:34:14;13.20;1.00
14057;DHT22;7103;54.300;10.180;2022-11-09T01:36:43;13.20;1.00
14057;DHT22;7103;54.300;10.180;2022-11-09T01:39:09;13.20;1.00
14057;DHT22;7103;54.300;10.180;2022-11-09T01:41:36;13.20;1.00
14057;DHT22;7103;54.300;10.180;2022-11-09T01:44:12;13.10;1.00
14057;DHT22;7103;54.300;10.180;2022-11-09T01:46:49;13.10;1.00
14057;DHT22;7103;54.300;10.180;2022-11-09T01:54:54;13.00;1.00
14057;DHT22;7103;54.300;10.180;2022-11-09T01:57:27;13.00;1.00
14057;DHT22;7103;54.300;10.180;2022-11-09T02:00:04;13.00;1.00
14057;DHT22;7103;54.300;10.180;2022-11-09T02:02:34;13.00;1.00
14057;DHT22;7103;54.300;10.180;2022-11-09T02:05:11;13.00;1.00
14057;DHT22;7103;54.300;10.180;2022-11-09T02:07:40;13.00;1.00
14057;DHT22;7103;54.300;10.180;2022-11-09T02:10:28;12.90;1.00
14057;DHT22;7103;54.300;10.180;2022-11-09T02:12:58;12.90;1.00
14057;DHT22;7103;54.300;10.180;2022-11-09T02:15:25;12.90;1.00
14057;DHT22;7103;54.300;10.180;2022-11-09T02:17:53;12.90;1.00
14057;DHT22;7103;54.300;10.180;2022-11-09T02:20:22;12.80;1.00
14057;DHT22;7103;54.300;10.180;2022-11-09T02:22:49;12.80;1.00
14057;DHT22;7103;54.300;10.180;2022-11-09T02:25:16;12.80;1.00
14057;DHT22;7103;54.300;10.180;2022-11-09T02:27:43;12.80;1.00
14057;DHT22;7103;54.300;10.180;2022-11-09T02:30:12;12.80;1.00
14057;DHT22;7103;54.300;10.180;2022-11-09T02:32:40;12.90;1.00
14057;DHT22;7103;54.300;10.180;2022-11-09T02:35:07;12.90;1.00
14057;DHT22;7103;54.300;10.180;2022-11-09T02:37:39;12.90;1.00
14057;DHT22;7103;54.300;10.180;2022-11-09T02:40:11;12.90;1.00
14057;DHT22;7103;54.300;10.180;2022-11-09T02:42:39;12.90;1.00
14057;DHT22;7103;54.300;10.180;2022-11-09T02:45:06;12.80;1.00
14057;DHT22;7103;54.300;10.180;2022-11-09T02:47:33;12.80;1.00
14057;DHT22;7103;54.300;10.180;2022-11-09T02:50:00;12.90;1.00
14057;DHT22;7103;54.300;10.180;2022-11-09T02:52:27;12.80;1.00
14057;DHT22;7103;54.300;10.180;2022-11-09T02:54:54;12.70;1.00
14057;DHT22;7103;54.300;10.180;2022-11-09T02:57:20;12.70;1.00
14057;DHT22;7103;54.300;10.180;2022-11-09T02:59:47;12.80;1.00
14057;DHT22;7103;54.300;10.180;2022-11-09T03:02:14;12.80;1.00
14057;DHT22;7103;54.300;10.180;2022-11-09T03:04:41;12.70;1.00
14057;DHT22;7103;54.300;10.180;2022-11-09T03:07:07;12.70;1.00
14057;DHT22;7103;54.300;10.180;2022-11-09T03:09:34;12.70;1.00
14057;DHT22;7103;54.300;10.180;2022-11-09T03:12:01;12.70;1.00
14057;DHT22;7103;54.300;10.180;2022-11-09T03:14:48;12.80;1.00
14057;DHT22;7103;54.300;10.180;2022-11-09T03:17:15;12.80;1.00
14057;DHT22;7103;54.300;10.180;2022-11-09T03:19:43;12.70;1.00
14057;DHT22;7103;54.300;10.180;2022-11-09T03:22:10;12.70;1.00
14057;DHT22;7103;54.300;10.180;2022-11-09T03:24:37;12.80;1.00
14057;DHT22;7103;54.300;10.180;2022-11-09T03:27:04;12.70;1.00
14057;DHT22;7103;54.300;10.180;2022-11-09T03:29:31;12.70;1.00
14057;DHT22;7103;54.300;10.180;2022-11-09T03:31:58;12.70;1.00
14057;DHT22;7103;54.300;10.180;2022-11-09T03:34:25;12.80;1.00
14057;DHT22;7103;54.300;10.180;2022-11-09T03:36:51;12.80;1.00
14057;DHT22;7103;54.300;10.180;2022-11-09T03:39:18;12.90;1.00
14057;DHT22;7103;54.300;10.180;2022-11-09T03:41:45;12.90;1.00
14057;DHT22;7103;54.300;10.180;2022-11-09T03:44:12;12.90;1.00
14057;DHT22;7103;54.300;10.180;2022-11-09T03:46:39;12.90;1.00
14057;DHT22;7103;54.300;10.180;2022-11-09T03:49:06;12.90;1.00
14057;DHT22;7103;54.300;10.180;2022-11-09T03:51:33;12.90;1.00
14057;DHT22;7103;54.300;10.180;2022-11-09T03:53:59;12.90;1.00
14057;DHT22;7103;54.300;10.180;2022-11-09T03:56:26;12.90;1.00
14057;DHT22;7103;54.300;10.180;2022-11-09T03:58:53;12.90;1.00
14057;DHT22;7103;54.300;10.180;2022-11-09T04:01:21;12.80;1.00
14057;DHT22;7103;54.300;10.180;2022-11-09T04:03:47;12.80;1.00
14057;DHT22;7103;54.300;10.180;2022-11-09T04:06:14;12.90;1.00
14057;DHT22;7103;54.300;10.180;2022-11-09T04:08:41;12.90;1.00
14057;DHT22;7103;54.300;10.180;2022-11-09T04:11:15;12.90;1.00
14057;DHT22;7103;54.300;10.180;2022-11-09T04:13:42;12.90;1.00
14057;DHT22;7103;54.300;10.180;2022-11-09T04:16:09;12.90;1.00
14057;DHT22;7103;54.300;10.180;2022-11-09T04:18:36;12.90;1.00
14057;DHT22;7103;54.300;10.180;2022-11-09T04:21:02;12.90;1.00
14057;DHT22;7103;54.300;10.180;2022-11-09T04:23:29;12.90;1.00
14057;DHT22;7103;54.300;10.180;2022-11-09T04:25:57;12.80;1.00
14057;DHT22;7103;54.300;10.180;2022-11-09T04:28:25;12.80;1.00
14057;DHT22;7103;54.300;10.180;2022-11-09T04:30:52;12.90;1.00
14057;DHT22;7103;54.300;10.180;2022-11-09T04:33:19;12.90;1.00
14057;DHT22;7103;54.300;10.180;2022-11-09T04:35:46;12.90;1.00
14057;DHT22;7103;54.300;10.180;2022-11-09T04:38:13;12.70;1.00
14057;DHT22;7103;54.300;10.180;2022-11-09T04:40:41;12.80;6.20
14057;DHT22;7103;54.300;10.180;2022-11-09T04:43:11;12.70;5.80
14057;DHT22;7103;54.300;10.180;2022-11-09T04:45:39;12.80;7.60
14057;DHT22;7103;54.300;10.180;2022-11-09T04:48:07;12.80;4.10
14057;DHT22;7103;54.300;10.180;2022-11-09T04:50:35;12.80;2.10
14057;DHT22;7103;54.300;10.180;2022-11-09T04:53:10;12.80;10.60
14057;DHT22;7103;54.300;10.180;2022-11-09T04:55:38;12.80;7.20
14057;DHT22;7103;54.300;10.180;2022-11-09T04:58:06;12.90;10.40
14057;DHT22;7103;54.300;10.180;2022-11-09T05:00:33;12.80;7.00
14057;DHT22;7103;54.300;10.180;2022-11-09T05:03:01;12.80;6.40
14057;DHT22;7103;54.300;10.180;2022-11-09T05:05:33;12.70;9.50
14057;DHT22;7103;54.300;10.180;2022-11-09T05:08:01;12.70;23.00
14057;DHT22;7103;54.300;10.180;2022-11-09T05:10:29;12.70;23.20
14057;DHT22;7103;54.300;10.180;2022-11-09T05:12:57;12.70;23.20
14057;DHT22;7103;54.300;10.180;2022-11-09T05:15:24;12.70;23.20
14057;DHT22;7103;54.300;10.180;2022-11-09T05:17:51;12.60;23.10
14057;DHT22;7103;54.300;10.180;2022-11-09T05:20:18;12.60;23.10
14057;DHT22;7103;54.300;10.180;2022-11-09T05:22:45;12.60;36.30
14057;DHT22;7103;54.300;10.180;2022-11-09T05:25:31;12.50;32.80
14057;DHT22;7103;54.300;10.180;2022-11-09T05:27:58;12.60;50.20
14057;DHT22;7103;54.300;10.180;2022-11-09T05:30:25;12.60;43.10
14057;DHT22;7103;54.300;10.180;2022-11-09T05:32:51;12.60;40.80
14057;DHT22;7103;54.300;10.180;2022-11-09T05:35:18;12.50;51.50
14057;DHT22;7103;54.300;10.180;2022-11-09T05:37:46;12.60;54.00
14057;DHT22;7103;54.300;10.180;2022-11-09T05:40:15;12.70;51.80
14057;DHT22;7103;54.300;10.180;2022-11-09T05:42:43;12.60;51.70
14057;DHT22;7103;54.300;10.180;2022-11-09T05:45:12;12.70;54.30
14057;DHT22;7103;54.300;10.180;2022-11-09T05:48:02;12.80;48.70
14057;DHT22;7103;54.300;10.180;2022-11-09T05:50:29;12.80;46.10
14057;DHT22;7103;54.300;10.180;2022-11-09T05:53:00;12.80;51.90
14057;DHT22;7103;54.300;10.180;2022-11-09T05:55:27;12.80;45.40
14057;DHT22;7103;54.300;10.180;2022-11-09T05:57:54;12.80;50.20
14057;DHT22;7103;54.300;10.180;2022-11-09T06:00:21;12.80;52.90
14057;DHT22;7103;54.300;10.180;2022-11-09T06:02:48;12.80;56.20
14057;DHT22;7103;54.300;10.180;2022-11-09T06:05:16;12.80;57.60
14057;DHT22;7103;54.300;10.180;2022-11-09T06:07:43;12.80;52.60
14057;DHT22;7103;54.300;10.180;2022-11-09T06:10:10;12.80;51.90
14057;DHT22;7103;54.300;10.180;2022-11-09T06:12:37;12.70;56.10
14057;DHT22;7103;54.300;10.180;2022-11-09T06:15:04;12.70;57.10
14057;DHT22;7103;54.300;10.180;2022-11-09T06:17:31;12.70;65.50
14057;DHT22;7103;54.300;10.180;2022-11-09T06:19:58;12.70;57.60
14057;DHT22;7103;54.300;10.180;2022-11-09T06:22:25;12.60;59.60
14057;DHT22;7103;54.300;10.180;2022-11-09T06:24:51;12.50;72.60
14057;DHT22;7103;54.300;10.180;2022-11-09T06:27:18;12.70;80.70
14057;DHT22;7103;54.300;10.180;2022-11-09T06:29:45;12.60;72.10
14057;DHT22;7103;54.300;10.180;2022-11-09T06:32:12;12.60;80.60
14057;DHT22;7103;54.300;10.180;2022-11-09T06:34:39;12.60;80.70
14057;DHT22;7103;54.300;10.180;2022-11-09T06:37:05;12.60;79.80
14057;DHT22;7103;54.300;10.180;2022-11-09T06:39:32;12.50;80.50
14057;DHT22;7103;54.300;10.180;2022-11-09T06:41:59;12.60;88.00
14057;DHT22;7103;54.300;10.180;2022-11-09T06:44:27;12.60;83.60
14057;DHT22;7103;54.300;10.180;2022-11-09T06:46:54;12.60;87.50
14057;DHT22;7103;54.300;10.180;2022-11-09T06:49:21;12.70;90.10
14057;DHT22;7103;54.300;10.180;2022-11-09T06:51:48;12.60;80.60
14057;DHT22;7103;54.300;10.180;2022-11-09T06:54:15;12.70;90.90
14057;DHT22;7103;54.300;10.180;2022-11-09T06:56:41;12.80;80.80
14057;DHT22;7103;54.300;10.180;2022-11-09T06:59:08;12.90;80.80
14057;DHT22;7103;54.300;10.180;2022-11-09T07:01:36;12.90;68.50
14057;DHT22;7103;54.300;10.180;2022-11-09T07:04:03;13.00;68.60
14057;DHT22;7103;54.300;10.180;2022-11-09T07:06:30;13.00;62.40
14057;DHT22;7103;54.300;10.180;2022-11-09T07:08:57;13.10;57.20
14057;DHT22;7103;54.300;10.180;2022-11-09T07:11:24;13.10;48.80
14057;DHT22;7103;54.300;10.180;2022-11-09T07:13:51;13.10;52.20
14057;DHT22;7103;54.300;10.180;2022-11-09T07:16:23;13.10;60.20
14057;DHT22;7103;54.300;10.180;2022-11-09T07:18:49;13.10;74.70
14057;DHT22;7103;54.300;10.180;2022-11-09T07:21:16;13.10;76.00
14057;DHT22;7103;54.300;10.180;2022-11-09T07:23:46;13.10;78.90
14057;DHT22;7103;54.300;10.180;2022-11-09T07:26:14;13.00;81.00
14057;DHT22;7103;54.300;10.180;2022-11-09T07:28:41;13.00;81.00
14057;DHT22;7103;54.300;10.180;2022-11-09T07:31:09;13.00;81.00
14057;DHT22;7103;54.300;10.180;2022-11-09T07:33:36;13.00;81.00
14057;DHT22;7103;54.300;10.180;2022-11-09T07:36:03;13.10;83.30
14057;DHT22;7103;54.300;10.180;2022-11-09T07:38:31;13.10;81.10
14057;DHT22;7103;54.300;10.180;2022-11-09T07:40:59;13.00;81.00
14057;DHT22;7103;54.300;10.180;2022-11-09T07:43:27;13.00;91.30
14057;DHT22;7103;54.300;10.180;2022-11-09T07:45:54;13.10;94.80
14057;DHT22;7103;54.300;10.180;2022-11-09T07:48:21;13.10;98.10
14057;DHT22;7103;54.300;10.180;2022-11-09T07:50:48;13.10;99.90
14057;DHT22;7103;54.300;10.180;2022-11-09T07:53:15;13.10;99.90
14057;DHT22;7103;54.300;10.180;2022-11-09T07:55:42;13.10;99.90
14057;DHT22;7103;54.300;10.180;2022-11-09T07:58:14;13.10;99.90
14057;DHT22;7103;54.300;10.180;2022-11-09T08:00:42;13.00;99.90
14057;DHT22;7103;54.300;10.180;2022-11-09T08:03:09;13.10;99.90
14057;DHT22;7103;54.300;10.180;2022-11-09T08:05:37;13.20;99.90
14057;DHT22;7103;54.300;10.180;2022-11-09T08:08:07;13.20;99.90
14057;DHT22;7103;54.300;10.180;2022-11-09T08:10:34;13.30;99.90
14057;DHT22;7103;54.300;10.180;2022-11-09T08:13:05;13.30;99.90
14057;DHT22;7103;54.300;10.180;2022-11-09T08:15:34;13.40;99.90
14057;DHT22;7103;54.300;10.180;2022-11-09T08:18:03;13.40;99.90
14057;DHT22;7103;54.300;10.180;2022-11-09T08:20:31;13.40;99.90
14057;DHT22;7103;54.300;10.180;2022-11-09T08:22:59;13.40;99.90
14057;DHT22;7103;54.300;10.180;2022-11-09T08:25:32;13.50;99.90
14057;DHT22;7103;54.300;10.180;2022-11-09T08:27:59;13.40;99.90
14057;DHT22;7103;54.300;10.180;2022-11-09T08:30:26;13.40;99.90
14057;DHT22;7103;54.300;10.180;2022-11-09T08:32:53;13.50;99.90
14057;DHT22;7103;54.300;10.180;2022-11-09T08:35:21;13.50;99.90
14057;DHT22;7103;54.300;10.180;2022-11-09T08:37:50;13.60;99.90
14057;DHT22;7103;54.300;10.180;2022-11-09T08:40:22;13.50;99.90
14057;DHT22;7103;54.300;10.180;2022-11-09T08:42:50;13.60;99.90
14057;DHT22;7103;54.300;10.180;2022-11-09T08:45:18;13.50;97.70
14057;DHT22;7103;54.300;10.180;2022-11-09T08:47:45;13.50;94.70
14057;DHT22;7103;54.300;10.180;2022-11-09T08:50:14;13.50;94.70
14057;DHT22;7103;54.300;10.180;2022-11-09T08:52:41;13.50;99.80
14057;DHT22;7103;54.300;10.180;2022-11-09T08:55:08;13.60;98.90
14057;DHT22;7103;54.300;10.180;2022-11-09T08:57:35;13.60;98.50
14057;DHT22;7103;54.300;10.180;2022-11-09T09:00:03;13.70;99.90
14057;DHT22;7103;54.300;10.180;2022-11-09T09:02:30;13.90;99.90
14057;DHT22;7103;54.300;10.180;2022-11-09T09:04:57;14.40;92.70
14057;DHT22;7103;54.300;10.180;2022-11-09T09:07:24;15.20;9.10
14057;DHT22;7103;54.300;10.180;2022-11-09T09:09:50;15.50;1.00
14057;DHT22;7103;54.300;10.180;2022-11-09T09:12:17;15.40;1.00
14057;DHT22;7103;54.300;10.180;2022-11-09T09:14:44;15.20;1.00
14057;DHT22;7103;54.300;10.180;2022-11-09T09:17:11;15.10;1.00
14057;DHT22;7103;54.300;10.180;2022-11-09T09:19:38;14.90;1.00
14057;DHT22;7103;54.300;10.180;2022-11-09T09:22:05;14.80;1.00
14057;DHT22;7103;54.300;10.180;2022-11-09T09:24:32;14.70;1.00
14057;DHT22;7103;54.300;10.180;2022-11-09T09:26:59;14.80;1.00
14057;DHT22;7103;54.300;10.180;2022-11-09T09:29:26;14.90;1.00
14057;DHT22;7103;54.300;10.180;2022-11-09T09:31:52;15.20;1.00
14057;DHT22;7103;54.300;10.180;2022-11-09T09:34:19;15.50;1.00
14057;DHT22;7103;54.300;10.180;2022-11-09T09:36:46;15.80;1.00
14057;DHT22;7103;54.300;10.180;2022-11-09T09:39:14;15.60;1.00
14057;DHT22;7103;54.300;10.180;2022-11-09T09:41:55;15.50;1.00
14057;DHT22;7103;54.300;10.180;2022-11-09T09:44:40;15.30;1.00
14057;DHT22;7103;54.300;10.180;2022-11-09T09:47:28;15.30;1.00
14057;DHT22;7103;54.300;10.180;2022-11-09T09:50:20;15.50;1.00
14057;DHT22;7103;54.300;10.180;2022-11-09T09:53:00;15.70;1.00
14057;DHT22;7103;54.300;10.180;2022-11-09T09:55:56;15.60;1.00
14057;DHT22;7103;54.300;10.180;2022-11-09T09:58:27;15.40;1.00
14057;DHT22;7103;54.300;10.180;2022-11-09T10:01:14;15.30;1.00
14057;DHT22;7103;54.300;10.180;2022-11-09T10:03:41;15.60;1.00
14057;DHT22;7103;54.300;10.180;2022-11-09T10:07:12;15.90;1.00
14057;DHT22;7103;54.300;10.180;2022-11-09T10:12:40;16.40;1.00
14057;DHT22;7103;54.300;10.180;2022-11-09T10:23:37;16.10;1.00
14057;DHT22;7103;54.300;10.180;2022-11-09T10:26:18;16.30;1.00
14057;DHT22;7103;54.300;10.180;2022-11-09T10:28:56;16.30;1.00
14057;DHT22;7103;54.300;10.180;2022-11-09T10:31:44;16.20;1.00
14057;DHT22;7103;54.300;10.180;2022-11-09T10:34:24;16.10;1.00
14057;DHT22;7103;54.300;10.180;2022-11-09T10:37:15;16.00;1.00
14057;DHT22;7103;54.300;10.180;2022-11-09T10:39:54;15.80;1.00
14057;DHT22;7103;54.300;10.180;2022-11-09T10:42:22;15.70;1.00
14057;DHT22;7103;54.300;10.180;2022-11-09T10:44:48;15.60;1.00
14057;DHT22;7103;54.300;10.180;2022-11-09T10:47:16;15.70;1.00
14057;DHT22;7103;54.300;10.180;2022-11-09T10:49:44;15.80;1.00
14057;DHT22;7103;54.300;10.180;2022-11-09T10:52:33;15.80;1.00
14057;DHT22;7103;54.300;10.180;2022-11-09T10:55:21;15.90;1.00
14057;DHT22;7103;54.300;10.180;2022-11-09T10:58:00;15.80;1.00
14057;DHT22;7103;54.300;10.180;2022-11-09T11:00:31;15.60;1.00
14057;DHT22;7103;54.300;10.180;2022-11-09T11:03:15;15.50;1.00
14057;DHT22;7103;54.300;10.180;2022-11-09T11:05:42;15.40;1.00
14057;DHT22;7103;54.300;10.180;2022-11-09T11:08:36;15.20;1.00
14057;DHT22;7103;54.300;10.180;2022-11-09T11:11:13;15.20;1.00
14057;DHT22;7103;54.300;10.180;2022-11-09T11:14:13;15.10;1.00
14057;DHT22;7103;54.300;10.180;2022-11-09T11:19:44;15.30;1.00
14057;DHT22;7103;54.300;10.180;2022-11-09T11:24:57;15.60;1.00
14057;DHT22;7103;54.300;10.180;2022-11-09T11:27:43;15.70;1.00
14057;DHT22;7103;54.300;10.180;2022-11-09T11:30:23;15.90;1.00
14057;DHT22;7103;54.300;10.180;2022-11-09T11:32:57;16.00;1.00
14057;DHT22;7103;54.300;10.180;2022-11-09T11:35:35;15.90;1.00
14057;DHT22;7103;54.300;10.180;2022-11-09T11:43:38;15.50;1.00
14057;DHT22;7103;54.300;10.180;2022-11-09T11:54:47;15.40;1.00
14057;DHT22;7103;54.300;10.180;2022-11-09T11:57:29;15.50;1.00
14057;DHT22;7103;54.300;10.180;2022-11-09T12:11:00;15.40;1.00
14057;DHT22;7103;54.300;10.180;2022-11-09T12:22:12;15.40;1.00
14057;DHT22;7103;54.300;10.180;2022-11-09T12:30:17;15.40;1.00
14057;DHT22;7103;54.300;10.180;2022-11-09T12:33:01;15.30;1.00
14057;DHT22;7103;54.300;10.180;2022-11-09T12:35:39;15.40;1.00
14057;DHT22;7103;54.300;10.180;2022-11-09T12:40:55;15.40;1.00
14057;DHT22;7103;54.300;10.180;2022-11-09T12:46:05;15.60;1.00
14057;DHT22;7103;54.300;10.180;2022-11-09T12:48:34;15.60;1.00
14057;DHT22;7103;54.300;10.180;2022-11-09T12:51:03;15.60;1.00
14057;DHT22;7103;54.300;10.180;2022-11-09T12:53:36;15.60;1.00
14057;DHT22;7103;54.300;10.180;2022-11-09T12:58:37;15.70;1.00
14057;DHT22;7103;54.300;10.180;2022-11-09T13:01:08;15.60;1.00
14057;DHT22;7103;54.300;10.180;2022-11-09T13:03:54;15.50;1.00
14057;DHT22;7103;54.300;10.180;2022-11-09T13:06:29;15.50;1.00
14057;DHT22;7103;54.300;10.180;2022-11-09T13:11:41;15.30;1.00
14057;DHT22;7103;54.300;10.180;2022-11-09T13:16:48;15.20;1.00
14057;DHT22;7103;54.300;10.180;2022-11-09T13:25:01;15.20;1.00
14057;DHT22;7103;54.300;10.180;2022-11-09T13:27:36;15.20;1.00
14057;DHT22;7103;54.300;10.180;2022-11-09T13:38:21;15.10;1.00
14057;DHT22;7103;54.300;10.180;2022-11-09T13:40:53;15.00;1.00
14057;DHT22;7103;54.300;10.180;2022-11-09T13:48:47;15.00;1.00
14057;DHT22;7103;54.300;10.180;2022-11-09T13:54:02;15.10;1.00
14057;DHT22;7103;54.300;10.180;2022-11-09T13:59:27;15.10;1.00
14057;DHT22;7103;54.300;10.180;2022-11-09T14:01:57;15.00;1.00
14057;DHT22;7103;54.300;10.180;2022-11-09T14:09:49;14.90;1.00
14057;DHT22;7103;54.300;10.180;2022-11-09T14:15:15;14.90;1.00
14057;DHT22;7103;54.300;10.180;2022-11-09T14:18:13;14.80;1.00
14057;DHT22;7103;54.300;10.180;2022-11-09T14:23:30;14.70;1.00
14057;DHT22;7103;54.300;10.180;2022-11-09T14:26:04;14.60;1.00
14057;DHT22;7103;54.300;10.180;2022-11-09T14:28:32;14.50;1.00
14057;DHT22;7103;54.300;10.180;2022-11-09T14:31:00;14.50;1.00
14057;DHT22;7103;54.300;10.180;2022-11-09T14:33:28;14.50;1.00
14057;DHT22;7103;54.300;10.180;2022-11-09T14:35:56;14.50;1.00
14057;DHT22;7103;54.300;10.180;2022-11-09T14:38:40;14.50;1.00
14057;DHT22;7103;54.300;10.180;2022-11-09T14:41:22;14.40;1.00
14057;DHT22;7103;54.300;10.180;2022-11-09T14:43:52;14.40;1.00
14057;DHT22;7103;54.300;10.180;2022-11-09T14:46:23;14.40;1.00
14057;DHT22;7103;54.300;10.180;2022-11-09T14:48:51;14.50;1.00
14057;DHT22;7103;54.300;10.180;2022-11-09T14:51:18;14.40;1.00
14057;DHT22;7103;54.300;10.180;2022-11-09T14:53:48;14.30;1.00
14057;DHT22;7103;54.300;10.180;2022-11-09T14:56:17;14.30;1.00
14057;DHT22;7103;54.300;10.180;2022-11-09T14:58:45;14.30;1.00
14057;DHT22;7103;54.300;10.180;2022-11-09T15:01:20;14.30;1.00
14057;DHT22;7103;54.300;10.180;2022-11-09T15:04:16;14.30;1.00
14057;DHT22;7103;54.300;10.180;2022-11-09T15:06:50;14.40;1.00
14057;DHT22;7103;54.300;10.180;2022-11-09T15:09:26;14.30;1.00
14057;DHT22;7103;54.300;10.180;2022-11-09T15:11:56;14.20;1.00
14057;DHT22;7103;54.300;10.180;2022-11-09T15:14:29;14.20;1.00
14057;DHT22;7103;54.300;10.180;2022-11-09T15:17:15;14.20;1.00
14057;DHT22;7103;54.300;10.180;2022-11-09T15:19:58;14.20;1.00
14057;DHT22;7103;54.300;10.180;2022-11-09T15:41:31;14.20;1.00
14057;DHT22;7103;54.300;10.180;2022-11-09T15:43:58;14.20;1.00
14057;DHT22;7103;54.300;10.180;2022-11-09T15:46:31;14.10;1.00
14057;DHT22;7103;54.300;10.180;2022-11-09T15:49:13;14.00;1.00
14057;DHT22;7103;54.300;10.180;2022-11-09T15:51:40;13.90;1.00
14057;DHT22;7103;54.300;10.180;2022-11-09T15:54:08;13.80;1.00
14057;DHT22;7103;54.300;10.180;2022-11-09T15:56:35;13.90;1.00
14057;DHT22;7103;54.300;10.180;2022-11-09T15:59:03;13.80;1.00
14057;DHT22;7103;54.300;10.180;2022-11-09T16:01:30;13.70;1.00
14057;DHT22;7103;54.300;10.180;2022-11-09T16:04:00;13.60;1.00
14057;DHT22;7103;54.300;10.180;2022-11-09T16:06:27;13.60;1.00
14057;DHT22;7103;54.300;10.180;2022-11-09T16:08:55;13.60;1.00
14057;DHT22;7103;54.300;10.180;2022-11-09T16:11:22;13.50;1.00
14057;DHT22;7103;54.300;10.180;2022-11-09T16:13:49;13.50;1.00
14057;DHT22;7103;54.300;10.180;2022-11-09T16:16:16;13.60;1.00
14057;DHT22;7103;54.300;10.180;2022-11-09T16:18:42;13.60;1.00
14057;DHT22;7103;54.300;10.180;2022-11-09T16:21:11;13.60;1.00
14057;DHT22;7103;54.300;10.180;2022-11-09T16:23:38;13.60;1.00
14057;DHT22;7103;54.300;10.180;2022-11-09T16:26:11;13.70;1.00
14057;DHT22;7103;54.300;10.180;2022-11-09T16:28:38;13.60;1.00
14057;DHT22;7103;54.300;10.180;2022-11-09T16:31:06;13.60;1.00
14057;DHT22;7103;54.300;10.180;2022-11-09T16:33:33;13.60;1.00
14057;DHT22;7103;54.300;10.180;2022-11-09T16:36:21;13.60;1.00
14057;DHT22;7103;54.300;10.180;2022-11-09T16:38:52;13.50;1.00
14057;DHT22;7103;54.300;10.180;2022-11-09T16:41:20;13.50;1.00
14057;DHT22;7103;54.300;10.180;2022-11-09T16:43:50;13.60;1.00
14057;DHT22;7103;54.300;10.180;2022-11-09T16:46:22;13.60;1.00
14057;DHT22;7103;54.300;10.180;2022-11-09T16:48:50;13.50;1.00
14057;DHT22;7103;54.300;10.180;2022-11-09T16:51:18;13.50;1.00
14057;DHT22;7103;54.300;10.180;2022-11-09T16:53:45;13.60;1.00
14057;DHT22;7103;54.300;10.180;2022-11-09T16:56:12;13.70;1.00
14057;DHT22;7103;54.300;10.180;2022-11-09T16:58:39;13.70;1.00
14057;DHT22;7103;54.300;10.180;2022-11-09T17:01:06;13.70;1.00
14057;DHT22;7103;54.300;10.180;2022-11-09T17:03:38;13.70;1.00
14057;DHT22;7103;54.300;10.180;2022-11-09T17:06:05;13.60;1.00
14057;DHT22;7103;54.300;10.180;2022-11-09T17:08:40;13.50;1.00
14057;DHT22;7103;54.300;10.180;2022-11-09T17:11:08;13.50;1.00
14057;DHT22;7103;54.300;10.180;2022-11-09T17:13:36;13.50;1.00
14057;DHT22;7103;54.300;10.180;2022-11-09T17:16:09;13.60;1.00
14057;DHT22;7103;54.300;10.180;2022-11-09T17:18:36;13.50;1.00
14057;DHT22;7103;54.300;10.180;2022-11-09T17:21:09;13.40;1.00
14057;DHT22;7103;54.300;10.180;2022-11-09T17:23:37;13.50;1.00
14057;DHT22;7103;54.300;10.180;2022-11-09T17:26:05;13.60;1.00
14057;DHT22;7103;54.300;10.180;2022-11-09T17:28:33;13.50;1.00
14057;DHT22;7103;54.300;10.180;2022-11-09T17:31:08;13.50;1.00
14057;DHT22;7103;54.300;10.180;2022-11-09T17:33:36;13.60;1.00
14057;DHT22;7103;54.300;10.180;2022-11-09T17:36:05;13.60;1.00
14057;DHT22;7103;54.300;10.180;2022-11-09T17:38:33;13.50;1.00
14057;DHT22;7103;54.300;10.180;2022-11-09T17:41:05;13.60;1.00
14057;DHT22;7103;54.300;10.180;2022-11-09T17:43:33;13.50;1.00
14057;DHT22;7103;54.300;10.180;2022-11-09T17:46:05;13.30;1.00
14057;DHT22;7103;54.300;10.180;2022-11-09T17:48:34;13.10;15.00
14057;DHT22;7103;54.300;10.180;2022-11-09T17:51:01;12.80;27.40
14057;DHT22;7103;54.300;10.180;2022-11-09T17:53:29;13.40;52.70
14057;DHT22;7103;54.300;10.180;2022-11-09T17:55:56;12.60;78.60
14057;DHT22;7103;54.300;10.180;2022-11-09T17:58:24;12.40;93.90
14057;DHT22;7103;54.300;10.180;2022-11-09T18:00:51;12.20;99.90
14057;DHT22;7103;54.300;10.180;2022-11-09T18:03:18;12.20;99.90
14057;DHT22;7103;54.300;10.180;2022-11-09T18:05:45;12.10;99.90
14057;DHT22;7103;54.300;10.180;2022-11-09T18:08:13;12.10;99.90
14057;DHT22;7103;54.300;10.180;2022-11-09T18:10:42;12.00;99.90